Time;durP1;ratioP1;P1;durP2;ratioP2;P2;SDS_P1;SDS_P2;PMS_P1;PMS_P2;Temp;Humidity;BMP_temperature;BMP_pressure;BME280_temperature;BME280_humidity;BME280_pressure;Samples;Min_cycle;Max_cycle;Signal;HPM_P1;HPM_P2
2023/02/19 00:02:15;;;;;;;;;;;6.20;77.90;;;;;;5000771;28;92122;-38
2023/02/19 00:04:40;;;;;;;;;;;6.20;77.90;;;;;;5000465;28;93912;-38
2023/02/19 00:07:06;;;;;;;;;;;6.20;77.90;;;;;;4999372;28;94688;-38
2023/02/19 00:09:31;;;;;;;;;;;6.20;77.90;;;;;;5000646;28;92432;-38
2023/02/19 00:11:57;;;;;;;;;;;6.20;77.90;;;;;;5001088;28;92441;-38
2023/02/19 00:14:22;;;;;;;;;;;6.20;77.90;;;;;;4999742;28;94933;-38
2023/02/19 00:16:48;;;;;;;;;;;6.20;77.90;;;;;;5000163;28;92034;-39
2023/02/19 00:19:15;;;;;;;;;;;6.20;77.90;;;;;;4999926;28;93393;-38
2023/02/19 00:21:41;;;;;;;;;;;6.10;77.80;;;;;;5002780;28;94514;-38
2023/02/19 00:24:07;;;;;;;;;;;6.20;77.90;;;;;;5000270;28;93657;-38
2023/02/19 00:26:33;;;;;;;;;;;6.20;77.90;;;;;;4999457;28;94383;-38
2023/02/19 00:28:59;;;;;;;;;;;6.20;77.90;;;;;;5000184;28;92113;-39
2023/02/19 00:31:26;;;;;;;;;;;6.20;77.90;;;;;;5000081;28;94496;-39
2023/02/19 00:33:52;;;;;;;;;;;6.20;77.90;;;;;;4999572;28;94683;-38
2023/02/19 00:36:18;;;;;;;;;;;6.20;77.90;;;;;;5000304;28;91411;-38
2023/02/19 00:38:44;;;;;;;;;;;6.20;77.90;;;;;;5000438;28;92579;-39
2023/02/19 00:41:20;;;;;;;;;;;6.20;77.90;;;;;;4999400;28;94782;-39
2023/02/19 00:43:54;;;;;;;;;;;6.20;77.90;;;;;;5002573;28;93004;-38
2023/02/19 00:46:25;;;;;;;;;;;6.20;77.90;;;;;;4999198;28;94959;-38
2023/02/19 00:48:51;;;;;;;;;;;6.10;77.80;;;;;;5000283;28;92102;-38
2023/02/19 00:51:17;;;;;;;;;;;6.10;77.80;;;;;;4999702;28;94025;-39
2023/02/19 00:53:43;;;;;;;;;;;6.10;77.80;;;;;;4998970;28;94098;-39
2023/02/19 00:56:09;;;;;;;;;;;6.10;77.80;;;;;;4999963;28;92167;-38
2023/02/19 00:58:34;;;;;;;;;;;6.10;77.80;;;;;;4999884;28;92309;-38
2023/02/19 01:01:00;;;;;;;;;;;6.20;77.80;;;;;;4999261;28;93840;-39
2023/02/19 01:03:26;;;;;;;;;;;6.20;77.70;;;;;;5002691;28;92204;-38
2023/02/19 01:05:51;;;;;;;;;;;6.20;77.70;;;;;;4998454;28;94551;-39
2023/02/19 01:08:17;;;;;;;;;;;6.10;77.60;;;;;;4998903;28;93029;-38
2023/02/19 01:10:43;;;;;;;;;;;6.10;77.70;;;;;;4999540;28;94548;-39
2023/02/19 01:13:08;;;;;;;;;;;6.10;77.70;;;;;;4999160;28;94503;-38
2023/02/19 01:15:34;;;;;;;;;;;6.20;77.70;;;;;;4999456;28;92237;-38
2023/02/19 01:18:00;;;;;;;;;;;6.10;77.60;;;;;;4999134;28;93849;-39
2023/02/19 01:20:25;;;;;;;;;;;6.20;77.70;;;;;;4998723;28;94390;-38
2023/02/19 01:22:51;;;;;;;;;;;6.10;77.70;;;;;;4999034;28;92247;-38
2023/02/19 01:25:17;;;;;;;;;;;6.10;77.70;;;;;;5002351;28;93841;-38
2023/02/19 01:27:42;;;;;;;;;;;6.10;77.70;;;;;;4999181;28;92124;-39
2023/02/19 01:30:08;;;;;;;;;;;6.10;77.70;;;;;;4999311;28;93815;-38
2023/02/19 01:32:34;;;;;;;;;;;6.10;77.60;;;;;;4997767;28;95251;-38
2023/02/19 01:34:59;;;;;;;;;;;6.10;77.60;;;;;;4999220;28;92537;-38
2023/02/19 01:37:25;;;;;;;;;;;6.10;77.70;;;;;;4999150;28;93654;-38
2023/02/19 01:39:51;;;;;;;;;;;6.10;77.70;;;;;;4998687;28;94873;-39
2023/02/19 01:42:16;;;;;;;;;;;6.10;77.60;;;;;;4999196;28;92312;-38
2023/02/19 01:44:42;;;;;;;;;;;6.10;77.60;;;;;;4999139;28;93768;-39
2023/02/19 01:47:07;;;;;;;;;;;6.10;77.70;;;;;;5001559;28;93435;-38
2023/02/19 01:49:51;;;;;;;;;;;6.10;77.90;;;;;;4999609;28;93763;-38
2023/02/19 01:52:33;;;;;;;;;;;6.10;77.80;;;;;;4998337;28;93192;-39
2023/02/19 01:55:00;;;;;;;;;;;6.10;77.70;;;;;;4998973;28;92070;-39
2023/02/19 01:57:27;;;;;;;;;;;6.10;77.70;;;;;;4998313;28;93976;-39
2023/02/19 01:59:55;;;;;;;;;;;6.10;78.30;;;;;;4998061;28;94596;-38
2023/02/19 02:02:22;;;;;;;;;;;6.10;77.70;;;;;;4998851;28;92090;-39
2023/02/19 02:04:48;;;;;;;;;;;6.00;77.70;;;;;;4998710;28;93806;-38
2023/02/19 02:12:41;;;;;;;;;;;6.00;77.70;;;;;;4998530;28;92286;-38
2023/02/19 02:15:07;;;;;;;;;;;6.10;77.80;;;;;;4999221;28;92228;-38
2023/02/19 02:17:48;;;;;;;;;;;6.00;77.70;;;;;;4998826;28;93071;-38
2023/02/19 02:20:14;;;;;;;;;;;6.00;77.60;;;;;;4998512;28;93084;-38
2023/02/19 02:22:39;;;;;;;;;;;6.00;77.60;;;;;;4997562;28;93107;-38
2023/02/19 02:25:23;;;;;;;;;;;6.00;77.60;;;;;;4998610;28;94947;-39
2023/02/19 02:28:01;;;;;;;;;;;6.00;77.50;;;;;;4998104;28;94454;-38
2023/02/19 02:30:32;;;;;;;;;;;6.00;77.50;;;;;;4998522;28;92067;-38
2023/02/19 02:33:24;;;;;;;;;;;6.00;77.60;;;;;;5001361;28;92291;-39
2023/02/19 02:36:01;;;;;;;;;;;6.00;77.60;;;;;;4981385;28;92377;-38
2023/02/19 02:38:28;;;;;;;;;;;6.00;77.60;;;;;;4998557;28;92618;-38
2023/02/19 02:40:54;;;;;;;;;;;6.00;77.60;;;;;;5001173;28;93968;-39
2023/02/19 02:43:20;;;;;;;;;;;6.00;77.60;;;;;;5001852;28;92154;-39
2023/02/19 02:45:45;;;;;;;;;;;6.00;77.60;;;;;;5001529;28;93711;-39
2023/02/19 02:48:17;;;;;;;;;;;6.00;77.60;;;;;;5000885;28;93994;-39
2023/02/19 02:50:42;;;;;;;;;;;6.00;77.60;;;;;;5001817;28;92455;-38
2023/02/19 02:55:56;;;;;;;;;;;5.90;77.40;;;;;;5004497;28;92495;-38
2023/02/19 02:58:22;;;;;;;;;;;5.90;77.50;;;;;;5001335;28;93875;-38
2023/02/19 03:03:38;;;;;;;;;;;5.90;77.30;;;;;;5001920;28;92279;-38
2023/02/19 03:06:05;;;;;;;;;;;5.90;77.40;;;;;;5001480;28;94166;-38
2023/02/19 03:08:36;;;;;;;;;;;5.90;77.30;;;;;;5001051;28;94661;-39
2023/02/19 03:19:18;;;;;;;;;;;5.90;77.50;;;;;;5001647;28;92075;-38
2023/02/19 03:21:45;;;;;;;;;;;5.90;77.40;;;;;;5000672;28;94628;-39
2023/02/19 03:26:57;;;;;;;;;;;5.90;77.40;;;;;;5000500;28;92020;-38
2023/02/19 03:29:24;;;;;;;;;;;5.90;77.40;;;;;;5000652;28;94546;-38
2023/02/19 03:31:52;;;;;;;;;;;5.80;77.40;;;;;;5001281;28;91405;-38
2023/02/19 03:34:22;;;;;;;;;;;5.80;77.30;;;;;;5001188;28;93221;-38
2023/02/19 03:36:53;;;;;;;;;;;5.90;77.30;;;;;;5000560;28;94644;-39
2023/02/19 03:39:19;;;;;;;;;;;5.80;77.40;;;;;;5003929;28;92931;-39
2023/02/19 03:41:54;;;;;;;;;;;5.80;77.40;;;;;;5000382;28;94385;-38
2023/02/19 03:44:38;;;;;;;;;;;5.80;77.30;;;;;;5000597;28;92254;-38
2023/02/19 03:47:09;;;;;;;;;;;5.80;77.30;;;;;;5001184;28;92006;-39
2023/02/19 03:49:37;;;;;;;;;;;5.80;77.30;;;;;;5000281;28;94472;-39
2023/02/19 03:52:09;;;;;;;;;;;5.80;77.20;;;;;;5000247;28;92201;-39
2023/02/19 03:54:40;;;;;;;;;;;5.80;77.20;;;;;;5000515;28;94388;-38
2023/02/19 03:57:08;;;;;;;;;;;5.80;77.10;;;;;;5000669;28;92987;-39
2023/02/19 03:59:39;;;;;;;;;;;5.80;77.20;;;;;;5000872;28;92148;-38
2023/02/19 04:02:06;;;;;;;;;;;5.80;77.30;;;;;;5003440;28;92183;-38
2023/02/19 04:04:36;;;;;;;;;;;5.80;77.20;;;;;;4999865;28;93068;-38
2023/02/19 04:07:02;;;;;;;;;;;5.80;77.10;;;;;;5000176;28;94663;-38
2023/02/19 04:09:32;;;;;;;;;;;5.80;77.30;;;;;;5000009;28;94621;-38
2023/02/19 04:11:58;;;;;;;;;;;5.70;77.30;;;;;;5000383;28;92131;-38
2023/02/19 04:14:27;;;;;;;;;;;5.80;77.20;;;;;;5000342;28;94209;-38
2023/02/19 04:16:57;;;;;;;;;;;5.80;77.20;;;;;;4999933;28;92646;-39
2023/02/19 04:19:24;;;;;;;;;;;5.80;77.30;;;;;;5000541;28;92103;-38
2023/02/19 04:21:50;;;;;;;;;;;5.80;77.10;;;;;;5000670;28;93890;-38
2023/02/19 04:24:25;;;;;;;;;;;5.70;77.20;;;;;;5002907;28;94474;-39
2023/02/19 04:26:51;;;;;;;;;;;5.70;77.40;;;;;;5000384;28;93805;-39
2023/02/19 04:29:17;;;;;;;;;;;5.70;77.20;;;;;;4999290;28;93967;-38
2023/02/19 04:31:42;;;;;;;;;;;5.70;77.20;;;;;;5000202;28;92170;-38
2023/02/19 04:34:07;;;;;;;;;;;5.70;77.10;;;;;;5000208;28;93775;-38
2023/02/19 04:36:33;;;;;;;;;;;5.70;77.20;;;;;;4999426;28;94712;-38
2023/02/19 04:38:59;;;;;;;;;;;5.60;77.30;;;;;;4999951;28;92078;-38
2023/02/19 04:41:24;;;;;;;;;;;5.60;77.30;;;;;;5000082;28;94138;-38
2023/02/19 04:43:50;;;;;;;;;;;5.60;77.20;;;;;;4999651;28;93107;-38
2023/02/19 04:46:15;;;;;;;;;;;5.70;77.30;;;;;;5003559;28;91496;-39
2023/02/19 04:48:41;;;;;;;;;;;5.70;77.40;;;;;;4999314;28;93990;-39
2023/02/19 04:51:08;;;;;;;;;;;5.60;77.20;;;;;;4999586;28;92197;-38
2023/02/19 04:53:34;;;;;;;;;;;5.60;77.30;;;;;;4999076;28;94077;-39
2023/02/19 04:56:10;;;;;;;;;;;5.60;77.20;;;;;;4999382;28;92500;-38
2023/02/19 04:58:35;;;;;;;;;;;5.60;77.20;;;;;;4999519;28;92222;-38
2023/02/19 05:01:01;;;;;;;;;;;5.70;77.10;;;;;;4999910;28;92507;-38
2023/02/19 05:03:26;;;;;;;;;;;5.60;77.10;;;;;;4998394;28;94571;-38
2023/02/19 05:05:52;;;;;;;;;;;5.60;77.20;;;;;;4998820;28;93572;-38
2023/02/19 05:08:18;;;;;;;;;;;5.60;77.20;;;;;;5002340;28;93999;-38
2023/02/19 05:10:43;;;;;;;;;;;5.60;77.20;;;;;;4999996;28;91444;-38
2023/02/19 05:13:09;;;;;;;;;;;5.60;77.10;;;;;;4999502;28;92405;-38
2023/02/19 05:15:34;;;;;;;;;;;5.60;77.10;;;;;;4998775;28;94761;-39
2023/02/19 05:18:00;;;;;;;;;;;5.50;77.10;;;;;;4998779;28;93167;-38
2023/02/19 05:20:25;;;;;;;;;;;5.60;77.10;;;;;;4999414;28;94688;-39
2023/02/19 05:22:50;;;;;;;;;;;5.60;77.10;;;;;;4998880;28;93767;-38
2023/02/19 05:25:16;;;;;;;;;;;5.60;76.90;;;;;;4999164;28;92157;-39
2023/02/19 05:27:42;;;;;;;;;;;5.60;77.00;;;;;;5002298;28;92426;-38
2023/02/19 05:30:07;;;;;;;;;;;5.60;76.90;;;;;;4999091;28;92187;-38
2023/02/19 05:32:34;;;;;;;;;;;5.60;76.90;;;;;;4999088;28;93980;-38
2023/02/19 05:34:59;;;;;;;;;;;5.60;77.00;;;;;;4999156;28;92792;-38
2023/02/19 05:37:25;;;;;;;;;;;5.60;77.00;;;;;;4999508;28;92187;-38
2023/02/19 05:39:50;;;;;;;;;;;5.60;76.90;;;;;;4999205;28;94149;-38
2023/02/19 05:42:16;;;;;;;;;;;5.50;76.90;;;;;;4997755;28;95185;-38
2023/02/19 05:44:41;;;;;;;;;;;5.60;76.90;;;;;;4999374;28;92179;-38
2023/02/19 05:47:07;;;;;;;;;;;5.60;76.90;;;;;;4999041;28;93654;-38
2023/02/19 05:49:32;;;;;;;;;;;5.50;76.90;;;;;;5001349;28;94535;-38
2023/02/19 05:51:58;;;;;;;;;;;5.50;76.80;;;;;;4999296;28;92351;-38
2023/02/19 05:54:23;;;;;;;;;;;5.50;76.80;;;;;;4998697;28;93416;-39
2023/02/19 05:56:49;;;;;;;;;;;5.50;76.80;;;;;;4998875;28;92171;-39
2023/02/19 05:59:14;;;;;;;;;;;5.60;76.90;;;;;;4999313;28;93794;-39
2023/02/19 06:01:39;;;;;;;;;;;5.50;76.80;;;;;;4998321;28;93159;-39
2023/02/19 06:04:05;;;;;;;;;;;5.60;76.80;;;;;;4999119;28;92203;-39
2023/02/19 06:06:31;;;;;;;;;;;5.50;76.70;;;;;;4997388;28;93161;-38
2023/02/19 06:08:56;;;;;;;;;;;5.50;76.70;;;;;;4998339;28;94724;-39
2023/02/19 06:11:23;;;;;;;;;;;5.50;76.80;;;;;;5001832;28;92189;-38
2023/02/19 06:13:49;;;;;;;;;;;5.50;76.70;;;;;;4999253;28;93068;-38
2023/02/19 06:16:16;;;;;;;;;;;5.50;76.70;;;;;;5002124;28;92147;-38
2023/02/19 06:18:42;;;;;;;;;;;5.50;76.80;;;;;;5002108;28;93763;-38
2023/02/19 06:21:09;;;;;;;;;;;5.50;76.80;;;;;;5001394;28;94746;-38
2023/02/19 06:23:35;;;;;;;;;;;5.50;76.70;;;;;;5002691;28;91407;-38
2023/02/19 06:26:06;;;;;;;;;;;5.50;76.70;;;;;;5002300;28;93135;-38
2023/02/19 06:28:31;;;;;;;;;;;5.50;76.70;;;;;;5001610;28;94643;-38
2023/02/19 06:30:57;;;;;;;;;;;5.50;76.70;;;;;;5001633;28;92980;-38
2023/02/19 06:33:23;;;;;;;;;;;5.50;76.70;;;;;;5004531;28;94792;-38
2023/02/19 06:35:48;;;;;;;;;;;5.50;76.70;;;;;;5001709;28;92551;-38
2023/02/19 06:38:14;;;;;;;;;;;5.50;76.70;;;;;;5001901;28;94245;-39
2023/02/19 06:40:39;;;;;;;;;;;5.40;76.70;;;;;;5001245;28;94827;-38
2023/02/19 06:43:05;;;;;;;;;;;5.40;76.70;;;;;;5001670;28;92204;-39
2023/02/19 06:45:30;;;;;;;;;;;5.50;76.70;;;;;;5001988;28;93783;-38
2023/02/19 06:47:55;;;;;;;;;;;5.40;76.70;;;;;;5001722;28;94205;-38
2023/02/19 06:50:21;;;;;;;;;;;5.40;76.60;;;;;;5001430;28;92243;-38
2023/02/19 06:52:46;;;;;;;;;;;5.40;76.70;;;;;;5001732;28;93665;-39
2023/02/19 06:55:12;;;;;;;;;;;5.40;76.70;;;;;;5003320;28;95674;-38
2023/02/19 06:57:37;;;;;;;;;;;5.40;76.60;;;;;;5001587;28;94951;-38
2023/02/19 07:00:03;;;;;;;;;;;5.40;76.70;;;;;;5001340;28;92992;-38
2023/02/19 07:02:29;;;;;;;;;;;5.40;76.70;;;;;;5001517;28;92137;-38
2023/02/19 07:04:54;;;;;;;;;;;5.40;76.70;;;;;;5001310;28;93631;-38
2023/02/19 07:07:19;;;;;;;;;;;5.40;76.60;;;;;;5000691;28;94586;-38
2023/02/19 07:09:45;;;;;;;;;;;5.40;76.60;;;;;;5001475;28;92100;-38
2023/02/19 07:12:11;;;;;;;;;;;5.40;76.60;;;;;;5001913;28;92752;-38
2023/02/19 07:14:36;;;;;;;;;;;5.40;76.50;;;;;;5000845;28;94524;-38
2023/02/19 07:17:02;;;;;;;;;;;5.40;76.60;;;;;;5004279;28;92138;-38
2023/02/19 07:19:27;;;;;;;;;;;5.40;76.60;;;;;;4999826;28;95454;-38
2023/02/19 07:21:53;;;;;;;;;;;5.50;76.60;;;;;;5001491;28;92167;-38
2023/02/19 07:24:20;;;;;;;;;;;5.50;76.60;;;;;;5001376;28;92313;-38
2023/02/19 07:26:45;;;;;;;;;;;5.40;76.50;;;;;;4999839;28;94874;-38
2023/02/19 07:29:11;;;;;;;;;;;5.40;76.60;;;;;;5001181;28;92448;-38
2023/02/19 07:31:36;;;;;;;;;;;5.50;76.60;;;;;;5001196;28;93727;-38
2023/02/19 07:34:02;;;;;;;;;;;5.40;76.60;;;;;;5000964;28;93194;-38
2023/02/19 07:36:27;;;;;;;;;;;5.40;76.60;;;;;;5004404;28;91476;-38
2023/02/19 07:38:56;;;;;;;;;;;5.40;76.60;;;;;;5000470;28;93792;-38
2023/02/19 07:41:23;;;;;;;;;;;5.50;76.60;;;;;;5000997;28;92135;-38
2023/02/19 07:43:48;;;;;;;;;;;5.40;76.60;;;;;;5000200;28;93985;-38
2023/02/19 07:46:14;;;;;;;;;;;5.40;76.60;;;;;;5000334;28;94462;-38
2023/02/19 07:48:40;;;;;;;;;;;5.40;76.50;;;;;;5000760;28;92168;-39
2023/02/19 07:51:07;;;;;;;;;;;5.40;76.60;;;;;;5001168;28;92483;-38
2023/02/19 07:53:33;;;;;;;;;;;5.50;76.70;;;;;;5000050;28;94625;-39
2023/02/19 07:56:04;;;;;;;;;;;5.40;76.70;;;;;;5000601;28;92591;-38
2023/02/19 07:58:29;;;;;;;;;;;5.40;76.80;;;;;;5003533;28;92086;-38
2023/02/19 08:00:55;;;;;;;;;;;5.40;76.80;;;;;;5001119;28;91400;-38
2023/02/19 08:03:21;;;;;;;;;;;5.50;76.80;;;;;;5000457;28;92965;-39
2023/02/19 08:05:48;;;;;;;;;;;5.50;76.80;;;;;;4999419;28;94491;-38
2023/02/19 08:08:15;;;;;;;;;;;5.40;76.80;;;;;;4999661;28;92990;-38
2023/02/19 08:13:25;;;;;;;;;;;5.50;76.90;;;;;;5000309;28;92190;-39
2023/02/19 08:15:55;;;;;;;;;;;5.50;76.90;;;;;;5000153;28;92091;-38
2023/02/19 08:18:22;;;;;;;;;;;5.50;76.90;;;;;;5000564;28;93760;-38
2023/02/19 08:20:48;;;;;;;;;;;5.50;76.90;;;;;;5003062;28;94750;-38
2023/02/19 08:23:14;;;;;;;;;;;5.50;77.00;;;;;;5000429;28;93667;-39
2023/02/19 08:25:39;;;;;;;;;;;5.50;77.00;;;;;;5000312;28;93881;-38
2023/02/19 08:28:05;;;;;;;;;;;5.50;77.00;;;;;;5000432;28;92155;-38
2023/02/19 08:30:31;;;;;;;;;;;5.50;77.00;;;;;;5000137;28;94034;-38
2023/02/19 08:32:58;;;;;;;;;;;5.50;76.90;;;;;;4998817;28;95415;-38
2023/02/19 08:35:23;;;;;;;;;;;5.50;77.00;;;;;;5000058;28;92132;-38
2023/02/19 08:37:49;;;;;;;;;;;5.50;77.10;;;;;;4998877;28;93570;-38
2023/02/19 08:40:15;;;;;;;;;;;5.50;77.00;;;;;;4999487;28;94206;-39
2023/02/19 08:42:40;;;;;;;;;;;5.50;77.10;;;;;;5003340;28;92292;-38
2023/02/19 08:45:06;;;;;;;;;;;5.50;77.10;;;;;;4999464;28;93030;-38
2023/02/19 08:47:33;;;;;;;;;;;5.50;77.20;;;;;;4999835;28;92106;-38
2023/02/19 08:49:59;;;;;;;;;;;5.50;77.20;;;;;;5000621;28;92379;-38
2023/02/19 08:52:24;;;;;;;;;;;5.50;77.20;;;;;;4999348;28;94378;-38
2023/02/19 08:54:50;;;;;;;;;;;5.50;77.20;;;;;;4999695;28;92183;-38
2023/02/19 08:57:15;;;;;;;;;;;5.50;77.20;;;;;;4999283;28;93808;-38
2023/02/19 08:59:40;;;;;;;;;;;5.50;77.20;;;;;;4999105;28;94842;-38
2023/02/19 09:02:07;;;;;;;;;;;5.60;77.30;;;;;;4999221;28;92266;-39
2023/02/19 09:04:33;;;;;;;;;;;5.60;77.30;;;;;;5002503;28;92660;-38
2023/02/19 09:06:58;;;;;;;;;;;5.60;77.30;;;;;;4999380;28;92024;-38
2023/02/19 09:09:24;;;;;;;;;;;5.60;77.30;;;;;;4999646;28;94015;-38
2023/02/19 09:11:49;;;;;;;;;;;5.60;77.30;;;;;;4998999;28;94704;-38
2023/02/19 09:14:15;;;;;;;;;;;5.60;77.20;;;;;;5000128;28;91397;-39
2023/02/19 09:16:40;;;;;;;;;;;5.60;77.30;;;;;;4999284;28;93222;-39
2023/02/19 09:19:06;;;;;;;;;;;5.60;77.20;;;;;;4999062;28;94593;-38
2023/02/19 09:21:31;;;;;;;;;;;5.60;77.20;;;;;;4998903;28;93427;-38
2023/02/19 09:23:57;;;;;;;;;;;5.60;77.20;;;;;;5001898;28;95160;-39
2023/02/19 09:26:23;;;;;;;;;;;5.60;77.10;;;;;;4999331;28;92224;-38
2023/02/19 09:28:49;;;;;;;;;;;5.60;77.10;;;;;;4999421;28;93686;-38
2023/02/19 09:31:14;;;;;;;;;;;5.60;77.10;;;;;;4998686;28;93876;-38
2023/02/19 09:33:47;;;;;;;;;;;5.60;77.20;;;;;;4999350;28;92151;-38
2023/02/19 09:36:13;;;;;;;;;;;5.70;77.30;;;;;;4999368;28;93648;-38
2023/02/19 09:38:39;;;;;;;;;;;5.70;77.20;;;;;;4999440;28;92309;-39
2023/02/19 09:41:06;;;;;;;;;;;5.70;77.20;;;;;;4999032;28;92207;-39
2023/02/19 09:43:31;;;;;;;;;;;5.70;77.40;;;;;;4999417;28;92201;-38
2023/02/19 09:46:01;;;;;;;;;;;5.70;77.90;;;;;;5000772;28;94669;-39
2023/02/19 09:48:26;;;;;;;;;;;5.80;77.40;;;;;;4998550;28;94940;-39
2023/02/19 09:50:52;;;;;;;;;;;5.80;77.50;;;;;;4998394;28;94677;-38
2023/02/19 09:53:23;;;;;;;;;;;5.80;77.40;;;;;;4998956;28;92166;-38
2023/02/19 09:55:50;;;;;;;;;;;5.80;77.70;;;;;;4998932;28;93965;-38
2023/02/19 09:58:19;;;;;;;;;;;5.80;77.70;;;;;;4998445;28;94521;-39
2023/02/19 10:00:45;;;;;;;;;;;5.80;77.70;;;;;;4998684;28;92168;-38
2023/02/19 10:03:13;;;;;;;;;;;5.80;77.70;;;;;;4999520;28;92397;-38
2023/02/19 10:05:39;;;;;;;;;;;5.80;77.70;;;;;;4998105;28;94665;-38
2023/02/19 10:08:08;;;;;;;;;;;5.90;77.90;;;;;;5001878;28;92048;-39
2023/02/19 10:10:34;;;;;;;;;;;5.90;78.00;;;;;;4997530;28;95733;-39
2023/02/19 10:13:09;;;;;;;;;;;5.90;77.90;;;;;;4998581;28;92162;-39
2023/02/19 10:15:41;;;;;;;;;;;5.90;78.00;;;;;;4998667;28;94011;-38
2023/02/19 10:18:07;;;;;;;;;;;5.90;78.00;;;;;;4998065;28;94392;-39
2023/02/19 10:20:32;;;;;;;;;;;5.90;78.10;;;;;;4998858;28;92156;-38
2023/02/19 10:23:02;;;;;;;;;;;6.00;78.20;;;;;;4998848;28;93744;-39
2023/02/19 10:25:28;;;;;;;;;;;6.00;78.20;;;;;;4998222;28;94974;-38
2023/02/19 10:27:56;;;;;;;;;;;6.00;78.90;;;;;;4998917;28;91524;-39
2023/02/19 10:30:23;;;;;;;;;;;6.00;78.40;;;;;;5001152;28;92840;-39
2023/02/19 10:32:58;;;;;;;;;;;6.00;78.30;;;;;;4998407;28;92154;-39
2023/02/19 10:35:23;;;;;;;;;;;6.00;78.40;;;;;;4997903;28;94064;-39
2023/02/19 10:37:49;;;;;;;;;;;6.10;78.40;;;;;;4998033;28;94578;-39
2023/02/19 10:40:25;;;;;;;;;;;6.10;78.50;;;;;;4998521;28;92186;-38
2023/02/19 10:42:53;;;;;;;;;;;6.10;78.60;;;;;;4998445;28;94222;-39
2023/02/19 10:45:21;;;;;;;;;;;6.10;78.60;;;;;;4997912;28;94304;-38
2023/02/19 10:47:48;;;;;;;;;;;6.10;78.70;;;;;;4998560;28;92189;-39
2023/02/19 10:50:22;;;;;;;;;;;6.20;78.90;;;;;;4998379;28;93516;-38
2023/02/19 10:52:52;;;;;;;;;;;6.20;79.00;;;;;;5001303;28;93682;-38
2023/02/19 10:55:18;;;;;;;;;;;6.20;78.90;;;;;;4998365;28;93221;-38
2023/02/19 10:57:45;;;;;;;;;;;6.20;78.90;;;;;;4997667;28;94445;-39
2023/02/19 11:00:13;;;;;;;;;;;6.20;79.00;;;;;;4997466;28;92947;-36
2023/02/19 11:02:39;;;;;;;;;;;6.30;79.00;;;;;;5001439;28;95695;-39
2023/02/19 11:05:08;;;;;;;;;;;6.30;79.20;;;;;;5001035;28;94524;-38
2023/02/19 11:07:38;;;;;;;;;;;6.30;79.00;;;;;;5000894;28;92281;-39
2023/02/19 11:10:05;;;;;;;;;;;6.30;79.00;;;;;;5001253;28;93941;-39
2023/02/19 11:12:33;;;;;;;;;;;6.30;79.10;;;;;;5000758;28;94603;-38
2023/02/19 11:15:18;;;;;;;;;;;6.40;79.20;;;;;;5004719;28;92362;-39
2023/02/19 11:17:44;;;;;;;;;;;6.40;79.30;;;;;;5001394;28;94038;-39
2023/02/19 11:20:14;;;;;;;;;;;6.40;79.30;;;;;;5001252;28;92249;-39
2023/02/19 11:22:41;;;;;;;;;;;6.40;79.50;;;;;;5001273;28;94536;-39
2023/02/19 11:25:17;;;;;;;;;;;6.40;79.50;;;;;;4999922;28;95754;-39
2023/02/19 11:27:56;;;;;;;;;;;6.50;79.30;;;;;;5001505;28;92226;-39
2023/02/19 11:30:37;;;;;;;;;;;6.50;79.40;;;;;;5001020;28;93937;-38
2023/02/19 11:33:14;;;;;;;;;;;6.50;79.50;;;;;;5000660;28;94122;-38
2023/02/19 11:35:40;;;;;;;;;;;6.50;79.50;;;;;;5003806;28;92156;-39
2023/02/19 11:38:08;;;;;;;;;;;6.50;79.50;;;;;;5000677;28;93163;-39
2023/02/19 11:40:39;;;;;;;;;;;6.60;79.60;;;;;;5000927;28;92250;-38
2023/02/19 11:43:24;;;;;;;;;;;6.60;79.60;;;;;;5001176;28;91589;-38
2023/02/19 11:46:08;;;;;;;;;;;6.60;79.60;;;;;;4978470;28;94694;-38
2023/02/19 11:48:53;;;;;;;;;;;6.60;79.50;;;;;;5000775;28;92243;-38
2023/02/19 11:51:39;;;;;;;;;;;6.70;79.60;;;;;;4999932;28;94110;-38
2023/02/19 11:54:09;;;;;;;;;;;6.70;79.70;;;;;;5000191;28;93493;-39
2023/02/19 11:56:35;;;;;;;;;;;6.70;79.60;;;;;;5000669;28;92191;-38
2023/02/19 11:59:21;;;;;;;;;;;6.70;79.40;;;;;;5003113;28;93595;-39
2023/02/19 12:01:50;;;;;;;;;;;6.80;79.80;;;;;;5000526;28;92187;-39
2023/02/19 12:04:15;;;;;;;;;;;6.80;79.80;;;;;;5000623;28;93869;-39
2023/02/19 12:06:41;;;;;;;;;;;6.80;79.90;;;;;;4999502;28;94740;-38
2023/02/19 12:09:09;;;;;;;;;;;6.80;79.50;;;;;;5001270;28;91433;-39
2023/02/19 12:11:37;;;;;;;;;;;6.90;79.70;;;;;;5000135;28;92161;-38
2023/02/19 12:14:15;;;;;;;;;;;6.90;79.80;;;;;;4999902;28;94557;-38
2023/02/19 12:16:58;;;;;;;;;;;6.90;79.80;;;;;;4999897;28;93705;-39
2023/02/19 12:19:38;;;;;;;;;;;6.90;79.70;;;;;;5000620;28;95564;-39
2023/02/19 12:22:15;;;;;;;;;;;7.00;79.90;;;;;;5002817;28;94549;-39
2023/02/19 12:25:06;;;;;;;;;;;7.00;79.60;;;;;;5000268;28;93407;-38
2023/02/19 12:27:31;;;;;;;;;;;7.00;79.50;;;;;;4999818;28;94737;-39
2023/02/19 12:29:57;;;;;;;;;;;7.00;79.80;;;;;;5000550;28;92267;-39
2023/02/19 12:32:25;;;;;;;;;;;7.00;79.60;;;;;;5000352;28;93829;-38
2023/02/19 12:34:53;;;;;;;;;;;7.10;79.90;;;;;;5000241;28;92486;-39
2023/02/19 12:37:25;;;;;;;;;;;7.10;79.90;;;;;;4999718;28;92199;-39
2023/02/19 12:39:50;;;;;;;;;;;7.10;79.80;;;;;;5000017;28;93641;-38
2023/02/19 12:42:34;;;;;;;;;;;7.10;79.90;;;;;;4998680;28;95485;-38
2023/02/19 12:45:03;;;;;;;;;;;7.20;80.00;;;;;;5003079;28;92206;-38
2023/02/19 12:47:35;;;;;;;;;;;7.20;80.00;;;;;;4999400;28;95096;-39
2023/02/19 12:50:15;;;;;;;;;;;7.20;80.00;;;;;;4999818;28;92354;-38
2023/02/19 12:52:45;;;;;;;;;;;7.30;79.90;;;;;;4999871;28;93559;-39
2023/02/19 12:55:18;;;;;;;;;;;7.30;80.00;;;;;;4999044;28;94403;-39
2023/02/19 12:57:44;;;;;;;;;;;7.30;80.00;;;;;;4999735;28;92033;-38
2023/02/19 13:00:30;;;;;;;;;;;7.30;80.00;;;;;;5000172;28;93752;-39
2023/02/19 13:02:55;;;;;;;;;;;7.30;80.10;;;;;;4998892;28;92910;-39
2023/02/19 13:05:30;;;;;;;;;;;7.40;80.00;;;;;;4999085;28;92224;-38
2023/02/19 13:07:57;;;;;;;;;;;7.40;80.10;;;;;;5001684;28;93667;-39
2023/02/19 13:10:28;;;;;;;;;;;7.40;80.10;;;;;;4999613;28;92070;-38
2023/02/19 13:12:57;;;;;;;;;;;7.40;80.00;;;;;;4999386;28;94189;-38
2023/02/19 13:15:40;;;;;;;;;;;7.50;80.00;;;;;;4998980;28;95374;-39
2023/02/19 13:18:31;;;;;;;;;;;7.50;80.00;;;;;;4999580;28;92032;-39
2023/02/19 13:20:58;;;;;;;;;;;7.50;80.00;;;;;;4997021;28;94115;-38
2023/02/19 13:26:19;;;;;;;;;;;7.60;80.10;;;;;;5000267;28;91443;-39
2023/02/19 13:29:11;;;;;;;;;;;7.60;79.90;;;;;;4999424;28;92068;-39
2023/02/19 13:31:36;;;;;;;;;;;7.60;80.10;;;;;;4984895;28;94759;-39
2023/02/19 13:34:16;;;;;;;;;;;7.60;80.00;;;;;;4998753;28;93098;-39
2023/02/19 13:36:41;;;;;;;;;;;7.70;80.20;;;;;;4998795;28;94602;-39
2023/02/19 13:39:12;;;;;;;;;;;7.70;80.10;;;;;;4999171;28;92171;-39
2023/02/19 13:41:47;;;;;;;;;;;7.70;80.10;;;;;;4999089;28;92951;-39
2023/02/19 13:44:17;;;;;;;;;;;7.70;80.10;;;;;;4998452;28;94909;-39
2023/02/19 13:46:44;;;;;;;;;;;7.80;80.20;;;;;;4998989;28;92139;-38
2023/02/19 13:49:22;;;;;;;;;;;7.80;80.00;;;;;;4999027;28;93772;-38
2023/02/19 13:51:52;;;;;;;;;;;7.80;80.10;;;;;;5002086;28;93698;-39
2023/02/19 13:54:22;;;;;;;;;;;7.90;80.10;;;;;;4999043;28;93010;-39
2023/02/19 13:56:48;;;;;;;;;;;7.90;80.10;;;;;;4998136;28;94722;-38
2023/02/19 13:59:33;;;;;;;;;;;8.00;80.30;;;;;;4998772;28;93229;-39
2023/02/19 14:02:01;;;;;;;;;;;8.00;80.10;;;;;;4998963;28;94821;-39
2023/02/19 14:04:30;;;;;;;;;;;8.00;80.10;;;;;;4998739;28;93062;-39
2023/02/19 14:07:01;;;;;;;;;;;8.10;80.20;;;;;;4998412;28;92245;-38
2023/02/19 14:09:45;;;;;;;;;;;8.10;80.30;;;;;;4998308;28;93914;-39
2023/02/19 14:12:11;;;;;;;;;;;8.10;80.10;;;;;;4998202;28;95099;-39
2023/02/19 14:14:36;;;;;;;;;;;8.20;80.20;;;;;;5001775;28;92261;-39
2023/02/19 14:17:08;;;;;;;;;;;8.20;80.30;;;;;;4998803;28;93545;-39
2023/02/19 14:19:44;;;;;;;;;;;8.20;80.20;;;;;;4998679;28;92053;-39
2023/02/19 14:22:29;;;;;;;;;;;8.30;80.40;;;;;;4998645;28;94114;-39
2023/02/19 14:24:56;;;;;;;;;;;8.30;80.20;;;;;;4997414;28;95637;-39
2023/02/19 14:27:21;;;;;;;;;;;8.30;80.20;;;;;;4998548;28;92216;-39
2023/02/19 14:29:47;;;;;;;;;;;8.40;80.30;;;;;;4998597;28;94203;-39
2023/02/19 14:32:17;;;;;;;;;;;8.40;80.30;;;;;;4997902;28;93237;-39
2023/02/19 14:34:44;;;;;;;;;;;8.40;80.30;;;;;;4999357;28;92095;-39
2023/02/19 14:37:17;;;;;;;;;;;8.50;80.00;;;;;;5004758;28;92950;-39
2023/02/19 14:39:43;;;;;;;;;;;8.50;80.10;;;;;;5001875;28;92070;-39
2023/02/19 14:42:16;;;;;;;;;;;8.50;80.30;;;;;;5017765;28;95880;-39
2023/02/19 14:44:50;;;;;;;;;;;8.50;80.20;;;;;;5001396;28;93155;-38
2023/02/19 14:47:23;;;;;;;;;;;8.60;80.40;;;;;;5001909;28;92094;-39
2023/02/19 14:49:51;;;;;;;;;;;8.70;77.70;;;;;;5001138;28;93834;-38
2023/02/19 14:52:16;;;;;;;;;;;8.60;79.00;;;;;;5001163;28;94428;-38
2023/02/19 14:54:47;;;;;;;;;;;8.50;79.50;;;;;;5001859;28;92098;-39
2023/02/19 14:57:16;;;;;;;;;;;8.60;80.10;;;;;;5001715;28;93833;-39
2023/02/19 14:59:50;;;;;;;;;;;8.70;79.50;;;;;;5004131;28;94517;-39
2023/02/19 15:02:24;;;;;;;;;;;8.70;79.50;;;;;;5001334;28;93707;-39
2023/02/19 15:04:50;;;;;;;;;;;8.70;79.60;;;;;;5001191;28;94408;-39
2023/02/19 15:07:18;;;;;;;;;;;8.70;79.60;;;;;;5001639;28;91428;-39